sensor_id;sensor_type;location;lat;lon;timestamp;pressure;altitude;pressure_sealevel;temperature;humidity
56630;BME280;42502;40.732;-74.254;2022-11-20T00:00:56;100964.88;;;17.95;33.94
56630;BME280;42502;40.732;-74.254;2022-11-20T00:02:57;100957.47;;;17.90;33.75
56630;BME280;42502;40.732;-74.254;2022-11-20T00:04:58;100960.75;;;17.92;33.96
56630;BME280;42502;40.732;-74.254;2022-11-20T00:06:59;100960.28;;;17.90;33.91
56630;BME280;42502;40.732;-74.254;2022-11-20T00:09:00;100948.88;;;17.87;34.07
56630;BME280;42502;40.732;-74.254;2022-11-20T00:11:13;100944.28;;;17.82;34.01
56630;BME280;42502;40.732;-74.254;2022-11-20T00:13:15;100950.88;;;17.86;34.16
56630;BME280;42502;40.732;-74.254;2022-11-20T00:15:16;100949.22;;;17.85;34.20
56630;BME280;42502;40.732;-74.254;2022-11-20T00:17:16;100943.97;;;17.84;34.32
56630;BME280;42502;40.732;-74.254;2022-11-20T00:19:17;100950.88;;;17.86;34.41
56630;BME280;42502;40.732;-74.254;2022-11-20T00:21:21;100950.88;;;17.86;34.17
56630;BME280;42502;40.732;-74.254;2022-11-20T00:23:22;100946.09;;;17.87;34.29
56630;BME280;42502;40.732;-74.254;2022-11-20T00:25:23;100947.59;;;17.84;33.92
56630;BME280;42502;40.732;-74.254;2022-11-20T00:27:23;100945.13;;;17.83;34.09
56630;BME280;42502;40.732;-74.254;2022-11-20T00:29:24;100951.38;;;17.80;34.23
56630;BME280;42502;40.732;-74.254;2022-11-20T00:31:35;100955.47;;;17.82;34.38
56630;BME280;42502;40.732;-74.254;2022-11-20T00:33:36;100953.84;;;17.81;34.34
56630;BME280;42502;40.732;-74.254;2022-11-20T00:35:37;100949.72;;;17.79;34.51
56630;BME280;42502;40.732;-74.254;2022-11-20T00:37:38;100941.81;;;17.81;34.43
56630;BME280;42502;40.732;-74.254;2022-11-20T00:39:38;100944.94;;;17.79;34.49
56630;BME280;42502;40.732;-74.254;2022-11-20T00:41:39;100939.69;;;17.77;34.56
56630;BME280;42502;40.732;-74.254;2022-11-20T00:43:40;100937.72;;;17.78;34.75
56630;BME280;42502;40.732;-74.254;2022-11-20T00:45:41;100932.28;;;17.73;34.75
56630;BME280;42502;40.732;-74.254;2022-11-20T00:47:42;100946.44;;;17.76;34.49
56630;BME280;42502;40.732;-74.254;2022-11-20T00:49:43;100947.59;;;17.75;34.67
56630;BME280;42502;40.732;-74.254;2022-11-20T00:51:44;100947.59;;;17.75;34.71
56630;BME280;42502;40.732;-74.254;2022-11-20T00:53:45;100939.38;;;17.70;34.71
56630;BME280;42502;40.732;-74.254;2022-11-20T00:55:56;100936.59;;;17.70;34.55
56630;BME280;42502;40.732;-74.254;2022-11-20T00:57:57;100934.28;;;17.72;34.64
56630;BME280;42502;40.732;-74.254;2022-11-20T00:59:58;100916.84;;;17.67;34.86
56630;BME280;42502;40.732;-74.254;2022-11-20T01:01:59;100924.09;;;17.68;34.75
56630;BME280;42502;40.732;-74.254;2022-11-20T01:04:00;100909.94;;;17.64;34.98
56630;BME280;42502;40.732;-74.254;2022-11-20T01:06:03;100914.69;;;17.64;34.77
56630;BME280;42502;40.732;-74.254;2022-11-20T01:08:04;100923.56;;;17.66;34.62
56630;BME280;42502;40.732;-74.254;2022-11-20T01:10:06;100924.75;;;17.65;34.57
56630;BME280;42502;40.732;-74.254;2022-11-20T01:12:07;100913.91;;;17.63;34.55
56630;BME280;42502;40.732;-74.254;2022-11-20T01:14:11;100907.47;;;17.63;34.73
56630;BME280;42502;40.732;-74.254;2022-11-20T01:16:19;100911.09;;;17.63;34.92
56630;BME280;42502;40.732;-74.254;2022-11-20T01:18:20;100900.06;;;17.58;34.77
56630;BME280;42502;40.732;-74.254;2022-11-20T01:20:20;100908.97;;;17.60;34.80
56630;BME280;42502;40.732;-74.254;2022-11-20T01:22:21;100899.75;;;17.59;34.79
56630;BME280;42502;40.732;-74.254;2022-11-20T01:24:23;100906.16;;;17.60;34.66
56630;BME280;42502;40.732;-74.254;2022-11-20T01:26:26;100896.13;;;17.59;34.76
56630;BME280;42502;40.732;-74.254;2022-11-20T01:28:27;100884.28;;;17.53;34.98
56630;BME280;42502;40.732;-74.254;2022-11-20T01:30:30;100893.66;;;17.57;34.71
56630;BME280;42502;40.732;-74.254;2022-11-20T01:32:31;100892.84;;;17.57;35.04
56630;BME280;42502;40.732;-74.254;2022-11-20T01:34:32;100890.41;;;17.55;34.77
56630;BME280;42502;40.732;-74.254;2022-11-20T01:36:35;100893.19;;;17.55;34.67
56630;BME280;42502;40.732;-74.254;2022-11-20T01:38:36;100896.31;;;17.54;34.89
56630;BME280;42502;40.732;-74.254;2022-11-20T01:40:37;100881.50;;;17.53;34.56
56630;BME280;42502;40.732;-74.254;2022-11-20T01:42:38;100881.50;;;17.53;34.76
56630;BME280;42502;40.732;-74.254;2022-11-20T01:47:37;100882.81;;;17.47;34.78
56630;BME280;42502;40.732;-74.254;2022-11-20T01:49:48;100885.44;;;17.44;34.76
56630;BME280;42502;40.732;-74.254;2022-11-20T01:51:57;100880.34;;;17.46;34.75
56630;BME280;42502;40.732;-74.254;2022-11-20T01:54:03;100884.47;;;17.48;34.84
56630;BME280;42502;40.732;-74.254;2022-11-20T01:56:08;100883.13;;;17.46;34.81
56630;BME280;42502;40.732;-74.254;2022-11-20T01:58:11;100888.56;;;17.42;35.00
56630;BME280;42502;40.732;-74.254;2022-11-20T02:00:14;100893.81;;;17.44;34.82
56630;BME280;42502;40.732;-74.254;2022-11-20T02:02:16;100890.03;;;17.39;34.79
56630;BME280;42502;40.732;-74.254;2022-11-20T02:04:18;100885.28;;;17.40;35.07
56630;BME280;42502;40.732;-74.254;2022-11-20T02:06:19;100892.50;;;17.41;34.99
56630;BME280;42502;40.732;-74.254;2022-11-20T02:08:24;100884.13;;;17.41;34.86
56630;BME280;42502;40.732;-74.254;2022-11-20T02:10:28;100880.84;;;17.39;35.07
56630;BME280;42502;40.732;-74.254;2022-11-20T02:12:30;100882.50;;;17.40;34.90
56630;BME280;42502;40.732;-74.254;2022-11-20T02:14:49;100880.84;;;17.39;35.19
56630;BME280;42502;40.732;-74.254;2022-11-20T02:16:50;100872.81;;;17.37;35.04
56630;BME280;42502;40.732;-74.254;2022-11-20T02:18:53;100858.16;;;17.32;35.09
56630;BME280;42502;40.732;-74.254;2022-11-20T02:21:45;100858.16;;;17.32;35.11
56630;BME280;42502;40.732;-74.254;2022-11-20T02:23:41;100860.63;;;17.33;35.24
56630;BME280;42502;40.732;-74.254;2022-11-20T02:25:50;100849.47;;;17.33;35.21
56630;BME280;42502;40.732;-74.254;2022-11-20T02:27:51;100848.66;;;17.33;35.12
56630;BME280;42502;40.732;-74.254;2022-11-20T02:29:56;100850.59;;;17.32;35.12
56630;BME280;42502;40.732;-74.254;2022-11-20T02:32:01;100836.00;;;17.27;35.15
56630;BME280;42502;40.732;-74.254;2022-11-20T02:34:05;100834.03;;;17.27;35.10
56630;BME280;42502;40.732;-74.254;2022-11-20T02:36:09;100834.84;;;17.28;35.54
56630;BME280;42502;40.732;-74.254;2022-11-20T02:38:13;100838.13;;;17.30;35.34
56630;BME280;42502;40.732;-74.254;2022-11-20T02:40:14;100824.84;;;17.27;35.54
56630;BME280;42502;40.732;-74.254;2022-11-20T02:42:15;100842.56;;;17.31;35.35
56630;BME280;42502;40.732;-74.254;2022-11-20T02:44:16;100830.25;;;17.32;35.87
56630;BME280;42502;40.732;-74.254;2022-11-20T02:46:20;100834.16;;;17.31;35.75
56630;BME280;42502;40.732;-74.254;2022-11-20T02:48:21;100824.66;;;17.32;35.75
56630;BME280;42502;40.732;-74.254;2022-11-20T02:50:21;100821.88;;;17.32;35.65
56630;BME280;42502;40.732;-74.254;2022-11-20T02:52:23;100805.59;;;17.34;35.88
56630;BME280;42502;40.732;-74.254;2022-11-20T02:54:24;100796.72;;;17.32;35.81
56630;BME280;42502;40.732;-74.254;2022-11-20T02:56:25;100804.13;;;17.36;35.89
56630;BME280;42502;40.732;-74.254;2022-11-20T02:58:26;100792.81;;;17.33;35.78
56630;BME280;42502;40.732;-74.254;2022-11-20T03:00:27;100789.03;;;17.37;35.48
56630;BME280;42502;40.732;-74.254;2022-11-20T03:02:31;100793.63;;;17.33;35.74
56630;BME280;42502;40.732;-74.254;2022-11-20T03:04:33;100786.03;;;17.34;35.80
56630;BME280;42502;40.732;-74.254;2022-11-20T03:06:34;100786.03;;;17.34;35.53
56630;BME280;42502;40.732;-74.254;2022-11-20T03:08:35;100778.84;;;17.33;35.65
56630;BME280;42502;40.732;-74.254;2022-11-20T03:10:36;100777.84;;;17.37;35.37
56630;BME280;42502;40.732;-74.254;2022-11-20T03:12:36;100756.66;;;17.36;35.25
56630;BME280;42502;40.732;-74.254;2022-11-20T03:14:37;100747.59;;;17.39;35.42
56630;BME280;42502;40.732;-74.254;2022-11-20T03:16:38;100742.03;;;17.39;35.43
56630;BME280;42502;40.732;-74.254;2022-11-20T03:18:40;100742.34;;;17.38;35.06
56630;BME280;42502;40.732;-74.254;2022-11-20T03:20:41;100735.63;;;17.39;35.43
56630;BME280;42502;40.732;-74.254;2022-11-20T03:22:42;100722.34;;;17.27;35.43
56630;BME280;42502;40.732;-74.254;2022-11-20T03:24:43;100738.91;;;17.41;35.19
56630;BME280;42502;40.732;-74.254;2022-11-20T03:26:44;100738.09;;;17.40;35.00
56630;BME280;42502;40.732;-74.254;2022-11-20T03:29:04;100738.91;;;17.41;35.19
56630;BME280;42502;40.732;-74.254;2022-11-20T03:31:10;100730.84;;;17.39;35.19
56630;BME280;42502;40.732;-74.254;2022-11-20T03:33:11;100718.88;;;17.39;35.25
56630;BME280;42502;40.732;-74.254;2022-11-20T03:35:12;100709.34;;;17.40;35.14
56630;BME280;42502;40.732;-74.254;2022-11-20T03:37:13;100712.63;;;17.42;34.80
56630;BME280;42502;40.732;-74.254;2022-11-20T03:39:13;100700.97;;;17.40;35.06
56630;BME280;42502;40.732;-74.254;2022-11-20T03:41:23;100697.53;;;17.43;35.11
56630;BME280;42502;40.732;-74.254;2022-11-20T03:43:24;100704.72;;;17.44;34.90
56630;BME280;42502;40.732;-74.254;2022-11-20T03:45:27;100690.63;;;17.40;34.52
56630;BME280;42502;40.732;-74.254;2022-11-20T03:47:28;100690.75;;;17.44;34.82
56630;BME280;42502;40.732;-74.254;2022-11-20T03:49:32;100677.78;;;17.39;34.63
56630;BME280;42502;40.732;-74.254;2022-11-20T03:51:34;100682.38;;;17.44;34.80
56630;BME280;42502;40.732;-74.254;2022-11-20T03:53:39;100684.84;;;17.46;34.80
56630;BME280;42502;40.732;-74.254;2022-11-20T03:55:40;100671.22;;;17.44;34.56
56630;BME280;42502;40.732;-74.254;2022-11-20T03:57:41;100668.75;;;17.43;34.89
56630;BME280;42502;40.732;-74.254;2022-11-20T03:59:44;100668.41;;;17.44;34.71
56630;BME280;42502;40.732;-74.254;2022-11-20T04:01:48;100660.03;;;17.44;34.91
56630;BME280;42502;40.732;-74.254;2022-11-20T04:03:50;100655.28;;;17.45;34.78
56630;BME280;42502;40.732;-74.254;2022-11-20T04:05:51;100648.88;;;17.44;34.76
56630;BME280;42502;40.732;-74.254;2022-11-20T04:07:53;100652.50;;;17.45;34.91
56630;BME280;42502;40.732;-74.254;2022-11-20T04:09:56;100652.16;;;17.46;34.59
56630;BME280;42502;40.732;-74.254;2022-11-20T04:12:00;100638.22;;;17.37;34.71
56630;BME280;42502;40.732;-74.254;2022-11-20T04:14:03;100642.47;;;17.44;34.77
56630;BME280;42502;40.732;-74.254;2022-11-20T04:16:05;100638.88;;;17.43;34.46
56630;BME280;42502;40.732;-74.254;2022-11-20T04:18:10;100629.84;;;17.37;34.64
56630;BME280;42502;40.732;-74.254;2022-11-20T04:20:11;100637.41;;;17.37;34.80
56630;BME280;42502;40.732;-74.254;2022-11-20T04:22:12;100645.13;;;17.40;34.86
56630;BME280;42502;40.732;-74.254;2022-11-20T04:24:13;100643.63;;;17.34;34.67
56630;BME280;42502;40.732;-74.254;2022-11-20T04:26:13;100642.66;;;17.38;34.74
56630;BME280;42502;40.732;-74.254;2022-11-20T04:28:14;100649.06;;;17.39;34.72
56630;BME280;42502;40.732;-74.254;2022-11-20T04:30:15;100642.16;;;17.36;34.90
56630;BME280;42502;40.732;-74.254;2022-11-20T04:32:16;100645.78;;;17.37;34.82
56630;BME280;42502;40.732;-74.254;2022-11-20T04:34:17;100642.50;;;17.35;35.10
56630;BME280;42502;40.732;-74.254;2022-11-20T04:36:20;100639.69;;;17.35;35.00
56630;BME280;42502;40.732;-74.254;2022-11-20T04:38:24;100627.53;;;17.31;35.10
56630;BME280;42502;40.732;-74.254;2022-11-20T04:40:25;100616.25;;;17.27;35.45
56630;BME280;42502;40.732;-74.254;2022-11-20T04:42:26;100636.44;;;17.33;35.41
56630;BME280;42502;40.732;-74.254;2022-11-20T04:44:29;100628.06;;;17.33;35.70
56630;BME280;42502;40.732;-74.254;2022-11-20T04:46:41;100622.81;;;17.31;35.62
56630;BME280;42502;40.732;-74.254;2022-11-20T04:48:43;100616.25;;;17.27;35.71
56630;BME280;42502;40.732;-74.254;2022-11-20T04:50:44;100621.16;;;17.30;36.05
56630;BME280;42502;40.732;-74.254;2022-11-20T04:52:45;100613.09;;;17.29;35.87
56630;BME280;42502;40.732;-74.254;2022-11-20T04:54:46;100601.94;;;17.29;36.22
56630;BME280;42502;40.732;-74.254;2022-11-20T04:56:50;100605.06;;;17.27;35.91
56630;BME280;42502;40.732;-74.254;2022-11-20T04:58:51;100598.69;;;17.27;35.93
56630;BME280;42502;40.732;-74.254;2022-11-20T05:00:52;100594.72;;;17.28;35.91
56630;BME280;42502;40.732;-74.254;2022-11-20T05:02:53;100585.38;;;17.23;35.97
56630;BME280;42502;40.732;-74.254;2022-11-20T05:04:54;100585.22;;;17.20;35.73
56630;BME280;42502;40.732;-74.254;2022-11-20T05:06:54;100582.28;;;17.16;35.98
56630;BME280;42502;40.732;-74.254;2022-11-20T05:08:55;100592.91;;;17.23;35.87
56630;BME280;42502;40.732;-74.254;2022-11-20T05:11:07;100578.69;;;17.16;35.65
56630;BME280;42502;40.732;-74.254;2022-11-20T05:13:08;100586.72;;;17.17;35.62
56630;BME280;42502;40.732;-74.254;2022-11-20T05:15:09;100595.22;;;17.21;35.64
56630;BME280;42502;40.732;-74.254;2022-11-20T05:17:11;100591.97;;;17.19;35.68
56630;BME280;42502;40.732;-74.254;2022-11-20T05:19:12;100569.47;;;17.15;36.05
56630;BME280;42502;40.732;-74.254;2022-11-20T05:21:13;100555.38;;;17.12;35.88
56630;BME280;42502;40.732;-74.254;2022-11-20T05:23:14;100565.53;;;17.16;35.97
56630;BME280;42502;40.732;-74.254;2022-11-20T05:25:15;100560.13;;;17.11;36.13
56630;BME280;42502;40.732;-74.254;2022-11-20T05:27:19;100575.03;;;17.15;35.75
56630;BME280;42502;40.732;-74.254;2022-11-20T05:29:20;100567.53;;;17.07;36.03
56630;BME280;42502;40.732;-74.254;2022-11-20T05:31:24;100570.00;;;17.09;35.98
56630;BME280;42502;40.732;-74.254;2022-11-20T05:33:25;100570.78;;;17.09;35.86
56630;BME280;42502;40.732;-74.254;2022-11-20T05:35:26;100583.47;;;17.07;35.95
56630;BME280;42502;40.732;-74.254;2022-11-20T05:37:27;100558.69;;;17.05;35.85
56630;BME280;42502;40.732;-74.254;2022-11-20T05:39:28;100570.78;;;17.09;36.02
56630;BME280;42502;40.732;-74.254;2022-11-20T05:41:29;100557.84;;;17.04;35.79
56630;BME280;42502;40.732;-74.254;2022-11-20T05:43:34;100564.25;;;17.05;35.77
56630;BME280;42502;40.732;-74.254;2022-11-20T05:45:38;100569.34;;;17.03;35.86
56630;BME280;42502;40.732;-74.254;2022-11-20T05:47:39;100590.66;;;17.08;35.95
56630;BME280;42502;40.732;-74.254;2022-11-20T05:49:40;100585.41;;;17.06;35.94
56630;BME280;42502;40.732;-74.254;2022-11-20T05:51:41;100583.28;;;17.03;35.85
56630;BME280;42502;40.732;-74.254;2022-11-20T05:53:42;100586.28;;;16.98;36.06
56630;BME280;42502;40.732;-74.254;2022-11-20T05:55:43;100608.75;;;17.01;35.93
56630;BME280;42502;40.732;-74.254;2022-11-20T05:57:44;100594.13;;;16.96;36.12
56630;BME280;42502;40.732;-74.254;2022-11-20T05:59:45;100601.84;;;16.99;36.05
56630;BME280;42502;40.732;-74.254;2022-11-20T06:01:46;100607.59;;;17.02;35.74
56630;BME280;42502;40.732;-74.254;2022-11-20T06:03:47;100596.25;;;16.99;36.07
56630;BME280;42502;40.732;-74.254;2022-11-20T06:05:49;100589.53;;;17.00;36.10
56630;BME280;42502;40.732;-74.254;2022-11-20T06:07:50;100582.97;;;16.96;35.91
56630;BME280;42502;40.732;-74.254;2022-11-20T06:09:51;100576.72;;;16.99;36.00
56630;BME280;42502;40.732;-74.254;2022-11-20T06:11:52;100563.09;;;16.97;36.00
56630;BME280;42502;40.732;-74.254;2022-11-20T06:13:53;100553.44;;;16.95;35.81
56630;BME280;42502;40.732;-74.254;2022-11-20T06:15:54;100547.69;;;16.91;35.87
56630;BME280;42502;40.732;-74.254;2022-11-20T06:17:55;100538.84;;;16.89;36.09
56630;BME280;42502;40.732;-74.254;2022-11-20T06:19:56;100543.63;;;16.89;35.95
56630;BME280;42502;40.732;-74.254;2022-11-20T06:21:57;100549.34;;;16.92;36.04
56630;BME280;42502;40.732;-74.254;2022-11-20T06:23:58;100553.94;;;16.88;35.93
56630;BME280;42502;40.732;-74.254;2022-11-20T06:26:09;100546.53;;;16.83;36.10
56630;BME280;42502;40.732;-74.254;2022-11-20T06:28:10;100546.06;;;16.90;36.07
56630;BME280;42502;40.732;-74.254;2022-11-20T06:30:11;100537.34;;;16.83;36.18
56630;BME280;42502;40.732;-74.254;2022-11-20T06:32:12;100543.63;;;16.89;36.10
56630;BME280;42502;40.732;-74.254;2022-11-20T06:34:13;100556.22;;;16.86;36.17
56630;BME280;42502;40.732;-74.254;2022-11-20T06:36:16;100555.91;;;16.87;36.10
56630;BME280;42502;40.732;-74.254;2022-11-20T06:38:17;100558.19;;;16.85;36.24
56630;BME280;42502;40.732;-74.254;2022-11-20T06:40:18;100547.19;;;16.80;35.98
56630;BME280;42502;40.732;-74.254;2022-11-20T06:42:19;100549.19;;;16.80;36.34
56630;BME280;42502;40.732;-74.254;2022-11-20T06:44:19;100547.19;;;16.80;36.04
56630;BME280;42502;40.732;-74.254;2022-11-20T06:46:21;100566.06;;;16.83;35.88
56630;BME280;42502;40.732;-74.254;2022-11-20T06:48:23;100567.56;;;16.81;36.23
56630;BME280;42502;40.732;-74.254;2022-11-20T06:50:24;100572.81;;;16.82;36.46
56630;BME280;42502;40.732;-74.254;2022-11-20T06:52:24;100566.41;;;16.82;36.28
56630;BME280;42502;40.732;-74.254;2022-11-20T06:54:25;100554.59;;;16.76;36.22
56630;BME280;42502;40.732;-74.254;2022-11-20T06:56:26;100551.97;;;16.80;36.30
56630;BME280;42502;40.732;-74.254;2022-11-20T06:58:29;100553.94;;;16.79;36.21
56630;BME280;42502;40.732;-74.254;2022-11-20T07:00:30;100555.91;;;16.79;36.29
56630;BME280;42502;40.732;-74.254;2022-11-20T07:02:37;100556.09;;;16.74;36.27
56630;BME280;42502;40.732;-74.254;2022-11-20T07:04:38;100564.59;;;16.77;36.19
56630;BME280;42502;40.732;-74.254;2022-11-20T07:06:39;100560.53;;;16.75;36.03
56630;BME280;42502;40.732;-74.254;2022-11-20T07:08:43;100561.34;;;16.75;36.40
56630;BME280;42502;40.732;-74.254;2022-11-20T07:10:43;100561.34;;;16.75;36.18
56630;BME280;42502;40.732;-74.254;2022-11-20T07:12:49;100566.09;;;16.75;36.08
56630;BME280;42502;40.732;-74.254;2022-11-20T07:14:51;100565.25;;;16.74;36.44
56630;BME280;42502;40.732;-74.254;2022-11-20T07:16:51;100561.66;;;16.74;36.16
56630;BME280;42502;40.732;-74.254;2022-11-20T07:18:53;100561.47;;;16.70;36.30
56630;BME280;42502;40.732;-74.254;2022-11-20T07:20:53;100563.13;;;16.71;36.09
56630;BME280;42502;40.732;-74.254;2022-11-20T07:22:55;100567.56;;;16.72;36.36
56630;BME280;42502;40.732;-74.254;2022-11-20T07:24:56;100558.53;;;16.66;36.31
56630;BME280;42502;40.732;-74.254;2022-11-20T07:27:00;100564.13;;;16.66;36.26
56630;BME280;42502;40.732;-74.254;2022-11-20T07:29:00;100576.59;;;16.69;36.38
56630;BME280;42502;40.732;-74.254;2022-11-20T07:31:07;100571.34;;;16.67;36.37
56630;BME280;42502;40.732;-74.254;2022-11-20T07:33:08;100572.00;;;16.64;36.36
56630;BME280;42502;40.732;-74.254;2022-11-20T07:35:08;100566.44;;;16.64;36.26
56630;BME280;42502;40.732;-74.254;2022-11-20T07:37:09;100558.72;;;16.61;36.50
56630;BME280;42502;40.732;-74.254;2022-11-20T07:39:10;100576.41;;;16.65;36.24
56630;BME280;42502;40.732;-74.254;2022-11-20T07:41:11;100575.47;;;16.61;36.27
56630;BME280;42502;40.732;-74.254;2022-11-20T07:43:14;100579.06;;;16.62;36.28
56630;BME280;42502;40.732;-74.254;2022-11-20T07:45:16;100590.69;;;16.64;36.26
56630;BME280;42502;40.732;-74.254;2022-11-20T07:47:17;100581.38;;;16.60;36.48
56630;BME280;42502;40.732;-74.254;2022-11-20T07:49:18;100587.28;;;16.58;36.24
56630;BME280;42502;40.732;-74.254;2022-11-20T07:51:19;100592.53;;;16.60;36.21
56630;BME280;42502;40.732;-74.254;2022-11-20T07:53:19;100592.84;;;16.58;36.35
56630;BME280;42502;40.732;-74.254;2022-11-20T07:55:22;100588.75;;;16.56;36.30
56630;BME280;42502;40.732;-74.254;2022-11-20T07:57:25;100592.53;;;16.60;36.36
56630;BME280;42502;40.732;-74.254;2022-11-20T07:59:29;100596.13;;;16.60;36.42
56630;BME280;42502;40.732;-74.254;2022-11-20T08:01:30;100587.09;;;16.55;36.25
56630;BME280;42502;40.732;-74.254;2022-11-20T08:03:34;100585.97;;;16.56;36.26
56630;BME280;42502;40.732;-74.254;2022-11-20T08:05:35;100585.63;;;16.57;36.21
56630;BME280;42502;40.732;-74.254;2022-11-20T08:07:39;100581.19;;;16.56;36.35
56630;BME280;42502;40.732;-74.254;2022-11-20T08:09:43;100582.03;;;16.57;36.34
56630;BME280;42502;40.732;-74.254;2022-11-20T08:11:44;100573.34;;;16.49;36.25
56630;BME280;42502;40.732;-74.254;2022-11-20T08:14:03;100576.28;;;16.53;36.47
56630;BME280;42502;40.732;-74.254;2022-11-20T08:16:13;100573.00;;;16.51;36.21
56630;BME280;42502;40.732;-74.254;2022-11-20T08:18:14;100568.91;;;16.48;36.37
56630;BME280;42502;40.732;-74.254;2022-11-20T08:20:15;100578.91;;;16.49;36.22
56630;BME280;42502;40.732;-74.254;2022-11-20T08:22:16;100582.19;;;16.51;36.24
56630;BME280;42502;40.732;-74.254;2022-11-20T08:24:18;100573.19;;;16.46;36.47
56630;BME280;42502;40.732;-74.254;2022-11-20T08:26:18;100574.00;;;16.46;36.39
56630;BME280;42502;40.732;-74.254;2022-11-20T08:28:21;100572.84;;;16.47;36.00
56630;BME280;42502;40.732;-74.254;2022-11-20T08:30:22;100566.28;;;16.43;36.08
56630;BME280;42502;40.732;-74.254;2022-11-20T08:32:22;100580.88;;;16.49;36.43
56630;BME280;42502;40.732;-74.254;2022-11-20T08:34:23;100565.97;;;16.45;36.10
56630;BME280;42502;40.732;-74.254;2022-11-20T08:36:25;100562.34;;;16.44;36.13
56630;BME280;42502;40.732;-74.254;2022-11-20T08:38:28;100566.75;;;16.45;36.46
56630;BME280;42502;40.732;-74.254;2022-11-20T08:40:29;100562.50;;;16.39;36.01
56630;BME280;42502;40.732;-74.254;2022-11-20T08:42:33;100566.75;;;16.45;36.08
56630;BME280;42502;40.732;-74.254;2022-11-20T08:44:34;100564.31;;;16.44;35.99
56630;BME280;42502;40.732;-74.254;2022-11-20T08:46:39;100555.78;;;16.40;36.08
56630;BME280;42502;40.732;-74.254;2022-11-20T08:48:44;100562.69;;;16.43;36.03
56630;BME280;42502;40.732;-74.254;2022-11-20T08:50:45;100565.47;;;16.43;36.10
56630;BME280;42502;40.732;-74.254;2022-11-20T08:52:46;100565.28;;;16.39;36.23
56630;BME280;42502;40.732;-74.254;2022-11-20T08:54:47;100574.13;;;16.41;36.34
56630;BME280;42502;40.732;-74.254;2022-11-20T08:56:48;100578.91;;;16.41;36.06
56630;BME280;42502;40.732;-74.254;2022-11-20T08:58:50;100578.91;;;16.41;35.99
56630;BME280;42502;40.732;-74.254;2022-11-20T09:00:52;100581.22;;;16.39;36.44
56630;BME280;42502;40.732;-74.254;2022-11-20T09:02:53;100574.63;;;16.34;36.29
56630;BME280;42502;40.732;-74.254;2022-11-20T09:04:54;100574.16;;;16.32;36.15
56630;BME280;42502;40.732;-74.254;2022-11-20T09:06:55;100576.78;;;16.38;36.06
56630;BME280;42502;40.732;-74.254;2022-11-20T09:08:55;100568.59;;;16.32;36.41
56630;BME280;42502;40.732;-74.254;2022-11-20T09:10:57;100573.16;;;16.37;36.41
56630;BME280;42502;40.732;-74.254;2022-11-20T09:12:58;100569.88;;;16.35;36.29
56630;BME280;42502;40.732;-74.254;2022-11-20T09:14:59;100573.50;;;16.36;36.27
56630;BME280;42502;40.732;-74.254;2022-11-20T09:17:00;100576.28;;;16.36;36.09
56630;BME280;42502;40.732;-74.254;2022-11-20T09:19:01;100574.63;;;16.34;36.50
56630;BME280;42502;40.732;-74.254;2022-11-20T09:21:04;100561.34;;;16.31;36.16
56630;BME280;42502;40.732;-74.254;2022-11-20T09:23:06;100561.69;;;16.30;36.35
56630;BME280;42502;40.732;-74.254;2022-11-20T09:25:07;100562.34;;;16.27;36.38
56630;BME280;42502;40.732;-74.254;2022-11-20T09:27:08;100562.00;;;16.28;35.99
56630;BME280;42502;40.732;-74.254;2022-11-20T09:29:09;100571.69;;;16.31;36.32
56630;BME280;42502;40.732;-74.254;2022-11-20T09:31:22;100581.19;;;16.30;36.17
56630;BME280;42502;40.732;-74.254;2022-11-20T09:33:23;100582.00;;;16.30;36.33
56630;BME280;42502;40.732;-74.254;2022-11-20T09:35:24;100583.19;;;16.29;36.12
56630;BME280;42502;40.732;-74.254;2022-11-20T09:37:28;100581.19;;;16.30;36.07
56630;BME280;42502;40.732;-74.254;2022-11-20T09:39:29;100578.59;;;16.25;36.39
56630;BME280;42502;40.732;-74.254;2022-11-20T09:46:44;100629.25;;;16.27;36.01
56630;BME280;42502;40.732;-74.254;2022-11-20T09:49:18;100634.81;;;16.27;36.04
56630;BME280;42502;40.732;-74.254;2022-11-20T09:51:59;100627.09;;;16.24;35.91
56630;BME280;42502;40.732;-74.254;2022-11-20T09:56:14;100636.28;;;16.24;35.99
56630;BME280;42502;40.732;-74.254;2022-11-20T09:58:29;100628.91;;;16.20;36.02
56630;BME280;42502;40.732;-74.254;2022-11-20T10:00:35;100628.41;;;16.17;36.08
56630;BME280;42502;40.732;-74.254;2022-11-20T10:03:06;100644.31;;;16.17;36.19
56630;BME280;42502;40.732;-74.254;2022-11-20T10:07:24;100643.00;;;16.14;36.08
56630;BME280;42502;40.732;-74.254;2022-11-20T10:09:37;100641.66;;;16.12;35.96
56630;BME280;42502;40.732;-74.254;2022-11-20T10:16:58;100659.72;;;16.14;35.96
56630;BME280;42502;40.732;-74.254;2022-11-20T10:23:50;100654.78;;;16.11;36.15
56630;BME280;42502;40.732;-74.254;2022-11-20T10:26:14;100657.59;;;16.11;35.90
56630;BME280;42502;40.732;-74.254;2022-11-20T10:31:01;100643.78;;;16.06;35.95
56630;BME280;42502;40.732;-74.254;2022-11-20T10:35:27;100651.50;;;16.09;35.75
56630;BME280;42502;40.732;-74.254;2022-11-20T10:37:29;100647.25;;;16.12;35.82
56630;BME280;42502;40.732;-74.254;2022-11-20T10:42:11;100645.75;;;16.06;35.91
56630;BME280;42502;40.732;-74.254;2022-11-20T10:44:16;100659.38;;;16.07;35.80
56630;BME280;42502;40.732;-74.254;2022-11-20T10:46:46;100652.78;;;16.03;35.73
56630;BME280;42502;40.732;-74.254;2022-11-20T10:48:47;100653.44;;;16.00;35.58
56630;BME280;42502;40.732;-74.254;2022-11-20T10:56:03;100660.66;;;16.01;35.70
56630;BME280;42502;40.732;-74.254;2022-11-20T11:00:22;100670.16;;;16.00;35.99
56630;BME280;42502;40.732;-74.254;2022-11-20T11:02:31;100666.22;;;16.01;35.70
56630;BME280;42502;40.732;-74.254;2022-11-20T11:04:39;100656.22;;;16.00;35.50